Tiempo atmosférico en la estación meteorológica de Asturias Aeropuerto, Asturias (127 m.)



Fecha
DESCASC
Temp. máxima en grados centígrados (hora)
DESCASC
Temp. mínima en grados centígrados (hora)
DESCASC
Temp. media en grados centígrados
DESCASC
Racha de viento máxima en m/sg (hora)
DESCASC
Velocidad máxima media en intervalos de 10 minutos(hora)
DESCASC
Precipitaciones diarias en mm
DESCASC
Precipitaciones de 00:00 a 06:00 en mm
DESCASC
Precipitaciones de 06:00 a 12:00 en mm
DESCASC
Precipitaciones de 12:00 a 18:00 en mm
DESCASC
Precipitaciones de 18:00 a 24:00 en mm
DESCASC
20-05-2018 19.4 (14:40) 9.8 (04:10) 14.6 9.17 (16:00) 5.28 (16:30) 0 0 0 0 0
19-05-2018 19.9 (12:50) 12.5 (05:30) 16.2 7.78 (17:00) 4.17 (09:00) 0 0 0 0 0
18-05-2018 18.9 (16:00) 10.3 (00:00) 14.6 8.89 (17:20) 4.72 (17:40) 0 0 0 0 0
17-05-2018 17.9 (13:40) 10.1 (00:00) 14 7.22 (14:30) 4.17 (22:30) 0 0 0 0 0
16-05-2018 17 (15:50) 11.6 (00:00) 14.3 7.22 (18:20) 3.89 (19:40) 0.2 0.2 0 0 0
15-05-2018 17.3 (12:50) 7.2 (00:00) 12.2 7.78 (09:30) 3.89 (07:40) 0.2 0 0 0 0.2
14-05-2018 16.2 (16:20) 9.2 (00:00) 12.7 16.39 (05:20) 11.39 (04:40) 14.6 13.1 1.5 0 0
13-05-2018 13.4 (16:30) 7.7 (00:00) 10.5 12.78 (13:40) 9.72 (17:00) 2.3 0.5 0.5 0 1.3
12-05-2018 -- (--) -- (--) -- -- (--) -- (--) -- -- 0.1 0 0
11-05-2018 17.1 (14:20) 8.1 (02:30) 12.6 8.33 (05:00) 5.56 (05:00) 5.9 0 0 0 5.9
10-05-2018 16.1 (16:10) 8.5 (00:00) 12.3 10.83 (17:00) 7.5 (18:40) 0.5 0.5 0 0 0
09-05-2018 -- (--) -- (--) -- -- (--) -- (--) -- 0 -- -- 0
08-05-2018 -- (--) -- (--) -- -- (--) -- (--) -- -- 0 0 0
07-05-2018 16.1 (16:10) 10.3 (00:00) 13.2 5 (13:10) 3.61 (23:59) 0 0 0 0 0
06-05-2018 19.4 (15:20) 8.5 (00:00) 13.9 7.78 (09:40) 3.89 (14:10) 0 0 0 0 0
05-05-2018 17.6 (15:10) 6 (00:00) 11.8 7.78 (11:10) 5 (21:50) 0 0 0 0 0
04-05-2018 16.1 (15:00) 7 (00:00) 11.6 8.89 (15:20) 4.17 (19:30) 0 0 0 0 0
03-05-2018 15.1 (13:40) 8.1 (00:00) 11.6 6.67 (15:30) 3.33 (02:40) -- -- -- 0 0
02-05-2018 15.9 (17:30) 9.3 (00:00) 12.6 10.83 (16:40) 6.39 (08:30) -- -- -- -- --
01-05-2018 14.3 (17:30) 4.8 (07:30) 9.6 6.67 (02:40) 4.44 (03:20) 0 0 0 0 0
30-04-2018 14.4 (16:40) 7 (00:00) 10.7 8.33 (11:10) 5 (11:10) 5.8 0.7 2.1 3 0
29-04-2018 14 (15:20) 4.6 (00:00) 9.3 8.89 (18:40) 5.83 (20:50) 7.1 0 0 3.7 3.4
28-04-2018 -- (--) -- (--) -- -- (--) -- (--) -- 0 0 0 --
27-04-2018 15.1 (13:30) 9.5 (00:00) 12.3 17.5 (07:40) 12.22 (07:40) 0 0 0 0 0
26-04-2018 16 (16:30) 9.1 (00:00) 12.6 8.89 (16:30) 5.83 (19:30) 0 0 0 0 0
25-04-2018 15.8 (13:20) 11.3 (00:00) 13.6 7.22 (13:30) 4.44 (13:40) 0 0 0 0 0
24-04-2018 15.8 (13:40) 12.8 (00:00) 14.3 6.11 (05:40) 3.61 (05:50) 0 0 0 0 0
23-04-2018 14.7 (18:20) 11.5 (00:00) 13.1 6.67 (21:10) 5 (18:30) 0 0 0 0 0
22-04-2018 18.3 (12:00) 11.7 (00:00) 15 8.33 (02:00) 5.56 (02:00) 0.2 0 0 0 0.2

Gráficas

Temp. máximas Temp. mínimas Temp. medias Precipitaciones Rachas de viento máximas Velocidades máximas media en intervalos de 10 minutos

Datos horarios

Fecha y hora oficial Temperatura (ºC) Velocidad del viento (km/h) Dirección del viento Racha (km/h) Dirección de racha Precipitación (mm) Presión (hPa) Tendencia (hPa) Humedad (%)
2018-05-21 23:00:00 13.5 3 Oeste 8 Oeste 0 998.8 2 94
2018-05-21 22:00:00 14.8 5 Nordeste 9 Nordeste 0 998 1.5 89
2018-05-21 21:00:00 17 4 Nordeste 13 Este 0 997.3 1 78
2018-05-21 20:00:00 18.2 7 Este 18 Este 0 996.8 0.5 69
2018-05-21 19:00:00 18.5 8 Este 22 Nordeste 0 996.5 0 65
2018-05-21 18:00:00 17.7 10 Este 24 Este 0 996.3 -0.2 66
2018-05-21 17:00:00 18.9 10 Nordeste 21 Este 0 996.3 -0.4 64
2018-05-21 16:00:00 19.8 9 Este 18 Este 0 996.5 -0.2 66
2018-05-21 15:00:00 19.1 10 Este 22 Este 0 996.5 -0.1 73
2018-05-21 14:00:00 18.8 12 Este 24 Este 0 996.7 0.3 78
2018-05-21 13:00:00 17.9 9 Nordeste 21 Norte 0 996.7 0.5 82
2018-05-21 12:00:00 16.9 10 Norte 17 Norte 0 996.6 0.6 83
2018-05-21 11:00:00 16.8 6 Norte 15 Nordeste 0 996.4 0.3 82
2018-05-21 10:00:00 15.9 10 Sudeste 24 Sudeste 0 996.2 0.3 84
2018-05-21 09:00:00 14.5 12 Sudeste 17 Este 0 996 0.2 93
2018-05-21 08:00:00 10.8 6 Sur 15 Sur 0 996.1 -0.2 98
2018-05-21 07:00:00 9.7 5 Sur 8 Sur 0 995.9 -0.8 97
2018-05-21 06:00:00 9.5 7 Sur 9 Sur 0 995.8 -1.4 97
2018-05-21 05:00:00 10.7 2 Sur 8 Sudeste 0 996.3 -1.7 97
2018-05-21 04:00:00 11 5 Sur 11 Sudeste 0 996.7 -1.6 97
2018-05-21 03:00:00 11.4 8 Sudeste 13 Sudeste 0 997.2 -1.7 97
2018-05-21 02:00:00 11.9 8 Sudeste 15 Sudeste 0 998 -0.9 97
2018-05-21 01:00:00 11.8 12 Sudeste 15 Sudeste 0 998.3 -0.3 96
2018-05-21 00:00:00 13.2 8 Este 18 Este 0 998.9 0.4 94
2018-05-20 23:00:00 14.3 12 Este 24 Este 0 998.9 0.5 93
2018-05-20 22:00:00 14.8 17 Este 26 Este 0 998.6 0.1 89
2018-05-20 21:00:00 16.7 10 Este 24 Este 0 998.5 -0.3 80
2018-05-20 20:00:00 17.7 13 Este 24 Nordeste 0 998.4 -0.9 74
2018-05-20 19:00:00 18.2 13 Este 28 Este 0 998.5 -1.4 73
2018-05-20 18:00:00 17.9 14 Este 28 Nordeste 0 998.8 -1.6 76
2018-05-20 17:00:00 18.5 15 Este 32 Nordeste 0 999.3 -1.6 73
2018-05-20 16:00:00 18.6 17 Este 33 Este 0 999.9 -1.7 69
2018-05-20 15:00:00 19 17 Este 30 Este 0 1000.4 -1.6 63
2018-05-20 14:00:00 18.8 15 Este 28 Este 0 1000.9 -1.4 65
2018-05-20 13:00:00 19.2 13 Este 26 Nordeste 0 1001.6 -1.1 68
2018-05-20 12:00:00 18.6 13 Este 26 Este 0 1002 -0.9 63
2018-05-20 11:00:00 17.4 15 Este 24 Este 0 1002.3 -0.3 72
2018-05-20 10:00:00 15.7 15 Este 24 Este 0 1002.7 0.2 82
2018-05-20 09:00:00 14 6 Sudeste 13 Sur 0 1002.9 0.4 89
2018-05-20 08:00:00 11.5 8 Sur 17 Sudeste 0 1002.6 -0.2 95
2018-05-20 07:00:00 10.8 9 Sudeste 17 Sudeste 0 1002.5 -0.7 96
2018-05-20 06:00:00 12.1 11 Sudeste 15 Sudeste 0 1002.5 -1.2 97
2018-05-20 05:00:00 11.5 8 Sudeste 13 Sur 0 1002.8 -1.3 97
2018-05-20 04:00:00 10 9 Sur 9 Sur 0 1003.2 -1.1 96
2018-05-20 03:00:00 11.5 5 Sudeste -- -- 0 1003.7 -0.8 97
2018-05-20 02:00:00 11.5 8 Sudeste 11 Sudeste 0 1004.1 -0.2 96
2018-05-20 01:00:00 13 9 Sudeste 15 Sudeste 0 1004.3 0.4 94
2018-05-20 00:00:00 13.3 9 Sudeste 15 Este 0 1004.5 0.8 94
2018-05-19 23:00:00 13.6 11 Este 17 Este 0 1004.3 0.7 93
2018-05-19 22:00:00 14.2 0 Calma 15 Este 0 1003.9 0.1 86
2018-05-19 21:00:00 16.3 10 Este 21 Este 0 1003.7 -0.1 80
2018-05-19 20:00:00 17.6 10 Este 24 Este 0 1003.6 -0.4 72
2018-05-19 19:00:00 17.9 12 Este 24 Este 0 1003.8 -0.6 75
2018-05-19 18:00:00 18.8 14 Este 26 Este 0 1003.8 -0.9 73
2018-05-19 17:00:00 18.8 14 Este 28 Nordeste 0 1004 -0.9 72
2018-05-19 16:00:00 19.4 13 Este 24 Este 0 1004.4 -0.5 71
2018-05-19 15:00:00 19.1 11 Este 22 Este 0 1004.7 -0.2 72
2018-05-19 14:00:00 19.2 11 Este 24 Este 0 1004.9 -0.2 73
2018-05-19 13:00:00 19.4 10 Este 21 Este 0 1004.9 -0.2 72
2018-05-19 12:00:00 19.1 9 Este 17 Este 0 1004.9 0.1 74
2018-05-19 11:00:00 18 7 Este 21 Este 0 1005.1 0.5 76
2018-05-19 10:00:00 16.1 9 Sudeste 18 Sudeste 0 1005.1 1 83
2018-05-19 09:00:00 15.1 15 Sudeste 22 Sudeste 0 1004.8 0.7 89
2018-05-19 08:00:00 13.9 5 Este 13 Este 0 1004.6 0.7 97
2018-05-19 07:00:00 13.8 8 Sudeste 11 Sudeste 0 1004.1 -0.1 97
2018-05-19 06:00:00 13.1 9 Sudeste 13 Sudeste 0 1004.1 -0.6 96
2018-05-19 05:00:00 13.4 11 Sudeste 17 Sudeste 0 1003.9 -1 96
2018-05-19 04:00:00 12.8 10 Sudeste 17 Sudeste 0 1004.2 -0.8 95
2018-05-19 03:00:00 14.4 10 Este 21 Este 0 1004.7 -0.4 93
2018-05-19 02:00:00 14.6 12 Este 22 Sudeste 0 1004.9 0 94
2018-05-19 01:00:00 14.5 11 Este 18 Este 0 1005 0.6 94
2018-05-19 00:00:00 14.4 10 Este 22 Sudeste 0 1005.1 1.1 94
2018-05-18 23:00:00 14.1 15 Este 21 Sudeste 0 1004.9 1.1 93
2018-05-18 22:00:00 14.6 13 Este 22 Este 0 1004.4 0.8 90
2018-05-18 21:00:00 15.9 11 Este 24 Este 0 1004 0.5 84
2018-05-18 20:00:00 16.8 13 Este 28 Nordeste 0 1003.8 0.4 81
2018-05-18 19:00:00 17.6 14 Este 30 Este 0 1003.6 0.1 79
2018-05-18 18:00:00 18.3 15 Este 32 Este 0 1003.5 -0.3 75
2018-05-18 17:00:00 18.5 13 Este 28 Este 0 1003.4 -0.9 79
2018-05-18 16:00:00 18.7 13 Este 28 Nordeste 0 1003.5 -1.3 75
2018-05-18 15:00:00 18.6 12 Este 24 Este 0 1003.8 -1 75
2018-05-18 14:00:00 17.4 9 Nordeste 18 Nordeste 0 1004.3 -0.5 78
2018-05-18 13:00:00 16.9 8 Este 18 Este 0 1004.8 -0.3 80
2018-05-18 12:00:00 16.9 8 Este 17 Nordeste 0 1004.8 0 80
2018-05-18 11:00:00 16.3 2 Nordeste 13 Sudeste 0 1004.8 0.4 84
2018-05-18 10:00:00 14.3 0 Calma 24 Sur 0 1005.1 0.9 92
2018-05-18 09:00:00 12.8 9 Sur 13 Sur 0 1004.8 0.8 95
2018-05-18 08:00:00 12.5 6 Sur 22 Sur 0 1004.4 0.5 95
2018-05-18 07:00:00 12.3 6 Sudoeste 11 Sur 0 1004.2 0.3 94
2018-05-18 06:00:00 12.6 5 Sur 8 Sur 0 1004 0.1 94
2018-05-18 05:00:00 12.9 6 Sudeste 11 Este 0 1003.9 -0.1 94
2018-05-18 04:00:00 12.5 5 Este 11 Este 0 1003.9 -0.3 96
2018-05-18 03:00:00 11.9 8 Sudeste 13 Este 0 1003.9 -0.2 97
2018-05-18 02:00:00 10.6 8 Sudeste 15 Este 0 1004 0 95
2018-05-18 01:00:00 11.7 11 Este 15 Este 0 1004.2 0.5 95
2018-05-18 00:00:00 11.7 8 Este 15 Sudeste 0 1004.1 0.5 95
2018-05-17 23:00:00 11.9 13 Sudeste 21 Sudeste 0 1004 0.6 94
2018-05-17 22:00:00 12.8 12 Este 18 Este 0 1003.7 0.5 91
2018-05-17 21:00:00 14.4 10 Este 21 Nordeste 0 1003.6 0.1 83
2018-05-17 20:00:00 15.7 9 Norte 17 Nordeste 0 1003.4 -0.2 80
2018-05-17 19:00:00 17 7 Este 21 Este 0 1003.2 -0.5 74
2018-05-17 18:00:00 16.4 10 Este 22 Este 0 1003.5 -0.1 75
2018-05-17 17:00:00 16.8 8 Nordeste 22 Nordeste 0 1003.6 -- 73
2018-05-17 16:00:00 16.8 9 Nordeste 21 Norte 0 1003.7 -0.2 75
2018-05-17 15:00:00 16.6 12 Nordeste 26 Este 0 1003.6 -0.4 73
2018-05-17 14:00:00 -- -- -- 21 Norte 0 -- -- --
2018-05-17 13:00:00 17.3 10 Este 22 Este 0 1003.9 0.2 73
2018-05-17 12:00:00 17.3 10 Nordeste 18 Nordeste 0 1004 0.2 74
2018-05-17 11:00:00 16.4 9 Este 18 Este 0 1003.6 -0.3 74
2018-05-17 10:00:00 15.5 7 Sudeste 17 Este 0 1003.7 -0.1 77
2018-05-17 09:00:00 13.1 9 Sudeste 13 Sudeste 0 1003.8 0 89
2018-05-17 08:00:00 12.2 8 Este 9 Este 0 1003.9 -0.1 94
2018-05-17 07:00:00 12 6 Este 9 Este 0 1003.8 -0.4 94
2018-05-17 06:00:00 11.9 4 Sudeste 9 Este 0 1003.8 -0.7 94
2018-05-17 05:00:00 11.7 5 Este 11 Este 0 1004 -1.1 92
2018-05-17 04:00:00 11.9 7 Este 15 Este 0 1004.2 -1.2 94
2018-05-17 03:00:00 11.6 5 Sudeste 11 Sudeste 0 1004.5 -1.3 95
2018-05-17 02:00:00 10.5 0 Calma 13 Este 0 1005.1 -0.4 95
2018-05-17 01:00:00 10.7 9 Este 18 Este 0 1005.4 0.4 93
2018-05-17 00:00:00 11.9 10 Este 18 Este 0 1005.8 1 92
2018-05-16 23:00:00 12.1 12 Este 21 Este 0 1005.5 0.9 91
2018-05-16 22:00:00 12.5 11 Este 17 Este 0 1005 0.1 89
2018-05-16 21:00:00 13.3 4 Este 21 Este 0 1004.8 -0.2 85
2018-05-16 20:00:00 13.8 11 Este 26 Este 0 1004.6 -0.4 83
2018-05-16 19:00:00 14.2 7 Este 26 Este 0 1004.9 -0.4 85
2018-05-16 18:00:00 15.4 4 Este 22 Este 0 1005 -0.8 79
2018-05-16 17:00:00 15.9 6 Este 24 Este 0 1005 -1.8 77
2018-05-16 16:00:00 16.1 8 Norte 22 Norte 0 1005.3 -1.9 77
2018-05-16 15:00:00 16.3 8 Nordeste 18 Este 0 1005.8 -1.5 79
2018-05-16 14:00:00 14.2 7 Este 13 Este 0 1006.8 -0.4 81
2018-05-16 13:00:00 13.5 7 Norte 15 Norte 0 1007.2 0.2 91
2018-05-16 12:00:00 14.3 10 Norte 17 Noroeste 0 1007.3 0.4 88
2018-05-16 11:00:00 13.3 8 Norte 13 Norte 0 1007.2 0.4 92
2018-05-16 10:00:00 13.1 6 Norte 9 Noroeste 0 1007 0.1 92
2018-05-16 09:00:00 12.7 6 Norte 9 Norte 0 1006.9 0 92
2018-05-16 08:00:00 11.9 5 Sur 15 Sudoeste 0 1006.8 -0.4 95
2018-05-16 07:00:00 11.6 4 Sudoeste 9 Sudoeste 0 1006.9 -1 95
2018-05-16 06:00:00 11.6 3 Sur 11 Sur 0 1006.9 -1.5 95
2018-05-16 05:00:00 11.7 8 Sur 11 Sudeste 0 1007.2 -1.5 95
2018-05-16 04:00:00 11.7 5 Este 9 Este 0 1007.9 -1.1 94
2018-05-16 03:00:00 11.9 4 Nordeste 13 Este 0 1008.4 -0.8 96
2018-05-16 02:00:00 12.1 0 Calma 8 Este 0 1008.7 -0.4 96
2018-05-16 01:00:00 12.1 3 Este 11 Este 0.2 1009 0.2 96
2018-05-16 00:00:00 12.3 3 Nordeste 9 Este 0.2 1009.2 0.5 95
2018-05-15 23:00:00 12.4 0 Calma 8 Sur 0 1009.1 0.8 94
2018-05-15 22:00:00 12.5 0 Calma 11 Este 0 1008.8 0.3 93
2018-05-15 21:00:00 13 6 Nordeste 15 Norte 0 1008.7 0.1 92
2018-05-15 20:00:00 13.8 6 Norte 17 Noroeste 0 1008.3 -0.5 88
2018-05-15 19:00:00 14.8 10 Noroeste 18 Noroeste 0 1008.5 -0.6 79
2018-05-15 18:00:00 15.8 9 Norte 18 Norte 0 1008.6 -0.8 72
2018-05-15 17:00:00 16 10 Norte 22 Norte 0 1008.8 -0.9 68
2018-05-15 16:00:00 16 10 Norte 21 Norte 0 1009.1 -0.6 67
2018-05-15 15:00:00 15.8 11 Norte 21 Norte 0 1009.4 -0.4 66
2018-05-15 14:00:00 15.7 12 Norte 22 Norte 0 1009.7 -0.4 61
2018-05-15 13:00:00 16.7 11 Norte 21 Noroeste 0 1009.7 -0.4 60
2018-05-15 12:00:00 16.3 8 Sudeste 18 Este 0 1009.8 -0.1 58
2018-05-15 11:00:00 14.3 6 Oeste 13 Noroeste 0 1010.1 0.2 69
2018-05-15 10:00:00 12 11 Sur 28 Sur 0 1010.1 0.3 79
2018-05-15 09:00:00 9.3 14 Sudoeste 22 Sudoeste 0 1009.9 0.2 89
2018-05-15 08:00:00 7.5 13 Sudoeste 26 Sudoeste 0 1009.9 0.1 94
2018-05-15 07:00:00 7.4 12 Sudoeste 21 Sudoeste 0 1009.8 -0.2 95
2018-05-15 06:00:00 7.8 11 Sudoeste 18 Sudoeste 0 1009.7 -0.4 95
2018-05-15 05:00:00 8 13 Sudoeste 17 Sur 0 1009.8 -0.6 95
2018-05-15 04:00:00 7.9 10 Sudoeste 15 Sudoeste 0 1010 -0.8 94
2018-05-15 03:00:00 8.1 9 Sudoeste 13 Sur 0 1010.1 -0.9 93
2018-05-15 02:00:00 8.3 8 Sudoeste 13 Sudoeste 0 1010.4 -0.5 92
2018-05-15 01:00:00 9.1 10 Sudoeste 13 Sudoeste 0 1010.8 0.5 91
2018-05-15 00:00:00 9.2 2 Sur -- -- 0 1011 1.1 89
2018-05-14 23:00:00 9.9 0 Calma 8 Este 0 1010.9 1.1 86
2018-05-14 22:00:00 11.2 4 Este 9 Nordeste 0 1010.3 0.6 80
2018-05-14 21:00:00 14 4 Norte 15 Norte 0 1009.9 0.2 71
2018-05-14 20:00:00 14.5 8 Norte 15 Norte 0 1009.8 0.2 70
2018-05-14 19:00:00 14.7 10 Norte 18 Norte 0 1009.7 0 71
2018-05-14 18:00:00 15.2 9 Norte 21 Norte 0 1009.7 0 69
2018-05-14 17:00:00 15.3 12 Norte 22 Norte 0 1009.6 0.1 68
2018-05-14 16:00:00 15.7 9 Este 21 Este 0 1009.7 0.6 64
2018-05-14 15:00:00 15.1 11 Nordeste 22 Norte 0 1009.7 0.9 73
2018-05-14 14:00:00 14.9 10 Norte 22 Nordeste 0 1009.5 1.2 76
2018-05-14 13:00:00 14.5 11 Norte 22 Norte 0 1009.1 1.3 76
2018-05-14 12:00:00 15.4 8 Nordeste 21 Este 0 1008.8 1.8 75
2018-05-14 11:00:00 13.9 12 Este 26 Este 0 1008.3 1.7 85
2018-05-14 10:00:00 12 13 Este 22 Este 0 1007.8 1.9 99
2018-05-14 09:00:00 12.3 3 Norte 15 Noroeste 0 1007 1.5 99
2018-05-14 08:00:00 11.6 7 Noroeste 11 Noroeste 0.1 1006.6 1.5 99
2018-05-14 07:00:00 11.3 3 Oeste 15 Norte 1.4 1005.9 0.9 99
2018-05-14 06:00:00 12.3 13 Noroeste 59 Oeste 3.3 1005.5 0.1 99
2018-05-14 05:00:00 11.9 39 Oeste 58 Oeste 2.3 1005.1 -1.2 98
2018-05-14 04:00:00 11.6 31 Oeste 46 Oeste 2.4 1005 -1.8 97
2018-05-14 03:00:00 10.1 12 Sudoeste 26 Sudoeste 2.7 1005.4 -2.1 96
2018-05-14 02:00:00 10.1 12 Sudoeste 21 Sudoeste 1.8 1006.3 -1.4 95
2018-05-14 01:00:00 10.1 12 Sudoeste 21 Sudoeste 0.6 1006.8 -0.8 95
2018-05-11 20:00:00 12.7 12 Noroeste 21 Oeste 0.5 1001.9 1.1 92
2018-05-11 19:00:00 15 6 Sudoeste 18 Norte 0 1001.6 0.7 75
2018-05-11 18:00:00 16.3 6 Noroeste 15 Oeste 0 1001.1 0.3 63
2018-05-11 17:00:00 16.4 5 Norte 9 Noroeste 0 1000.8 0.2 61
2018-05-11 16:00:00 15.9 4 Norte 17 Noroeste 0 1000.9 0.7 61
2018-05-11 15:00:00 16.1 9 Noroeste 15 Noroeste 0 1000.8 0.7 71
2018-05-11 14:00:00 15.8 6 Norte 17 Sudeste 0 1000.6 0.8 79
2018-05-11 13:00:00 15 5 Norte 15 Norte 0 1000.2 0.6 76
2018-05-11 12:00:00 15.3 8 Norte 13 Norte 0 1000.1 0.5 78
2018-05-11 11:00:00 14.7 7 Noroeste 13 Noroeste 0 999.8 0.9 82
2018-05-11 10:00:00 14.2 6 Oeste 22 Noroeste 0 999.6 1.8 85
2018-05-11 09:00:00 13 17 Noroeste 28 Noroeste 0 999.6 2.4 87
2018-05-11 08:00:00 11.3 16 Oeste 26 Oeste 0 998.9 1.6 86
2018-05-11 07:00:00 9.6 13 Sudoeste 21 Sudoeste 0 997.8 -0.1 86
2018-05-11 06:00:00 10.4 9 Sudoeste 30 Sur 0 997.2 -1.7 84
2018-05-11 05:00:00 9.3 20 Sur 30 Sur 0 997.3 -2.5 88
2018-05-11 04:00:00 9 12 Sur 22 Sudoeste 0 997.9 -3 90
2018-05-11 03:00:00 8.9 13 Sur 26 Sudoeste 0 998.9 -3.1 90
2018-05-11 02:00:00 8.5 9 Sur 18 Sudeste 0 999.8 -2.8 89
2018-05-11 01:00:00 8.8 15 Sudeste 22 Sudeste 0 1000.9 -1.9 88
2018-05-11 00:00:00 8.8 17 Sudeste 22 Sudeste 0 1002 -1.2 88
2018-05-10 23:00:00 10 15 Sudeste 28 Sudeste 0 1002.6 -0.8 82
2018-05-10 22:00:00 11.2 15 Este 30 Este 0 1002.8 -1.2 75
2018-05-10 21:00:00 12.6 19 Este 33 Este 0 1003.2 -1.4 69
2018-05-10 20:00:00 13.8 18 Este 37 Nordeste 0 1003.4 -1.5 64
2018-05-10 19:00:00 13.5 24 Este 39 Sudeste 0 1004 -1.3 64
2018-05-10 18:00:00 15.1 19 Este 39 Este 0 1004.6 -1.5 60
2018-05-10 17:00:00 15 20 Este 39 Nordeste 0 1004.9 -1.9 58
2018-05-10 16:00:00 15.8 14 Este 33 Este 0 1005.3 -2.2 61
2018-05-10 15:00:00 15.3 12 Este 28 Este 0 1006.1 -1.6 61
2018-05-10 14:00:00 14.6 9 Este 24 Nordeste 0 1006.8 -0.6 62
2018-05-10 13:00:00 14.9 13 Nordeste 22 Norte 0 1007.5 0.5 58
2018-05-10 12:00:00 14.4 10 Este 22 Nordeste 0 1007.7 1.2 62
2018-05-10 11:00:00 14.5 9 Este 18 Nordeste 0 1007.4 1.6 64
2018-05-10 10:00:00 12.1 4 Nordeste 17 Nordeste 0 1007 1.6 72
2018-05-10 09:00:00 11.6 6 Nordeste 13 Nordeste 0 1006.5 1.4 77
2018-05-10 08:00:00 11.2 5 Nordeste 13 Nordeste 0 1005.8 0.8 79
2018-05-10 07:00:00 11.1 5 Nordeste 15 Nordeste 0 1005.4 1 80
2018-05-10 06:00:00 11.3 6 Este 15 Nordeste 0 1005.1 1.1 84
2018-05-10 05:00:00 11.1 5 Sudoeste 17 Sudoeste 0 1005 1.2 89
2018-05-10 04:00:00 10.7 9 Oeste 26 Sudoeste 0.5 1004.4 0.7 95
2018-05-10 03:00:00 11.1 14 Oeste 32 Oeste 0 1004 0.5 89
2018-05-10 02:00:00 11.7 14 Oeste 26 Oeste 0 1003.8 0.5 83
2018-05-10 01:00:00 11.6 11 Sudoeste 17 Sudoeste 0 1003.7 0.9 81
2018-05-10 00:00:00 11.5 12 Oeste 17 Oeste 0 1003.5 1.2 83
2018-05-09 23:00:00 11.6 11 Oeste 18 Oeste 0 1003.3 1.5 86
2018-05-09 22:00:00 12.1 11 Oeste 26 Noroeste 0 1002.8 1.4 86
2018-05-09 21:00:00 12.3 14 Oeste 28 Oeste 0 1002.3 1.2 85
2018-05-09 20:00:00 12.5 13 Oeste 22 Oeste 0 1001.8 0.9 89
2018-05-09 19:00:00 12.7 14 Oeste 22 Oeste 0 1001.4 0.8 87
2018-05-09 18:00:00 12.8 13 Oeste 21 Oeste 0 1001.1 0.5 87
2018-05-09 17:00:00 13 13 Noroeste -- -- -- 1000.9 0.5 92
2018-05-09 16:00:00 13.5 14 Oeste -- -- -- 1000.6 0.1 93
2018-05-09 15:00:00 12.8 10 Noroeste 21 Noroeste 0 1000.6 0 94
2018-05-09 14:00:00 12.9 5 Noroeste 15 Norte 0 1000.4 -- 97
2018-05-09 13:00:00 12.9 6 Norte 13 Norte 0 1000.5 -- 97
2018-05-09 12:00:00 13.1 5 Nordeste -- -- -- 1000.6 0.4 98
2018-05-09 11:00:00 -- -- -- -- -- -- -- -- --
2018-05-09 10:00:00 -- -- -- -- -- -- -- -- --
2018-05-09 09:00:00 12.6 3 Nordeste 11 Norte 0.9 1000.2 0.4 97
2018-05-09 08:00:00 12.3 3 Sudoeste 15 Sudoeste 0 1000.1 -0.3 95
2018-05-09 07:00:00 12.3 3 Sudoeste 8 Sudoeste 0 999.9 -0.8 96
2018-05-09 06:00:00 12.4 4 Sudoeste 8 Oeste 0 999.8 -1.5 96
2018-05-09 05:00:00 12.4 6 Oeste 9 Oeste 0 1000.4 -1.5 97
2018-05-09 04:00:00 12.6 5 Noroeste 8 Noroeste 0 1000.7 -1.5 95
2018-05-09 03:00:00 12.5 2 Noroeste 5 Norte 0 1001.3 -1 92
2018-05-09 02:00:00 12.8 0 Calma 13 Sudoeste 0 1001.9 -0.8 91
2018-05-09 01:00:00 12.6 4 Sur 8 Sur 0 1002.2 -0.4 92
2018-05-09 00:00:00 12.6 4 Sudoeste 5 Sur 0 1002.3 -0.3 91
2018-05-08 23:00:00 12.6 4 Sur 22 Sudoeste 0 1002.7 0.6 92
2018-05-08 22:00:00 12.6 5 Oeste 11 Noroeste 0 1002.6 -0.1 91
2018-05-08 21:00:00 13 5 Noroeste 11 Noroeste 0 1002.6 0 88
2018-05-08 20:00:00 14.2 6 Norte 17 Oeste 0 1002.1 -0.6 82
2018-05-08 19:00:00 14.2 10 Noroeste 21 Noroeste 0 1002.7 -0.3 82
2018-05-08 18:00:00 14.3 9 Noroeste 21 Noroeste 0 1002.6 -1 83
2018-05-08 17:00:00 14.4 13 Noroeste 22 Noroeste 0 1002.7 -1 83
2018-05-08 16:00:00 14.6 13 Noroeste 26 Oeste 0 1003 -0.3 85
2018-05-08 15:00:00 12.5 17 Noroeste 26 Oeste 0 1003.6 1 94
2018-05-08 14:00:00 12 16 Noroeste 28 Noroeste 0 1003.7 1.1 98
2018-05-08 13:00:00 12.6 14 Noroeste -- -- -- 1003.3 0.9 99
2018-05-08 12:00:00 12.6 9 Noroeste 17 Oeste 0 1002.6 0.5 100
2018-05-08 11:00:00 12.5 11 Noroeste 18 Oeste 0 1002.6 1.1 100
2018-05-08 10:00:00 12.4 10 Noroeste 24 Oeste 0 1002.4 1.2 100
2018-05-08 09:00:00 12.8 14 Noroeste 24 Noroeste 0 1002.1 0.7 100
2018-05-08 08:00:00 13.1 10 Noroeste 18 Noroeste 0 1001.5 -- 100
2018-05-08 07:00:00 13.1 10 Oeste 18 Oeste 0 1001.2 -- 99
2018-05-08 06:00:00 13.1 14 Oeste -- -- -- 1001.4 -- 99
2018-05-08 05:00:00 -- -- -- -- -- -- -- -- --
2018-05-08 04:00:00 -- -- -- -- -- -- -- -- --
2018-05-08 03:00:00 -- -- -- -- -- -- -- -- --
2018-05-08 02:00:00 13.1 12 Noroeste 24 Noroeste 0 1002.4 0.5 98
2018-05-08 01:00:00 13.1 11 Noroeste 21 Oeste 0 1002.3 0.7 98
2018-05-08 00:00:00 12.9 13 Oeste 18 Oeste 0 1002.4 1.1 97
2018-05-07 23:00:00 12.9 6 Noroeste 11 Oeste 0 1001.9 0.7 97
2018-05-07 22:00:00 13.2 4 Noroeste 9 Oeste 0 1001.6 0.5 95
2018-05-07 21:00:00 13.6 7 Oeste 15 Noroeste 0 1001.3 0.4 95
2018-05-07 20:00:00 13.9 10 Noroeste 15 Noroeste 0 1001.2 0.2 94
2018-05-07 19:00:00 14.4 9 Noroeste 17 Noroeste 0 1001.1 -0.4 91
2018-05-07 18:00:00 15.1 8 Noroeste 17 Norte 0 1000.9 -1.1 89
2018-05-07 17:00:00 15.6 8 Norte 17 Norte 0 1001 -1.1 86
2018-05-07 16:00:00 15.6 7 Norte 18 Noroeste 0 1001.5 -0.9 85
2018-05-07 15:00:00 15.5 11 Noroeste 18 Noroeste 0 1002 -0.7 85
2018-05-07 14:00:00 15.3 10 Noroeste 18 Noroeste 0 1002.1 -0.4 88
2018-05-07 13:00:00 15 9 Noroeste 15 Noroeste 0 1002.4 -0.1 92
2018-05-07 12:00:00 14 6 Noroeste 13 Noroeste 0 1002.7 0.5 97
2018-05-07 11:00:00 13.3 7 Noroeste 13 Oeste 0 1002.5 0.5 98
2018-05-07 10:00:00 12.7 6 Oeste 13 Oeste 0 1002.5 0.8 99
2018-05-07 09:00:00 12.2 8 Oeste 11 Oeste 0 1002.2 0.6 99
2018-05-07 08:00:00 11.5 6 Oeste 15 Sudoeste 0 1002 0.4 98
2018-05-07 07:00:00 10.3 7 Sudoeste 11 Oeste 0 1001.7 0 97
2018-05-07 06:00:00 10.8 4 Oeste 11 Oeste 0 1001.6 -0.4 97
2018-05-07 05:00:00 11.3 8 Sudoeste 13 Oeste 0 1001.6 -0.6 97
2018-05-07 04:00:00 11.5 5 Sudeste 9 Sur 0 1001.7 -0.7 97
2018-05-07 03:00:00 11.6 2 Sudeste 8 Sudeste 0 1002 -0.4 97
2018-05-07 02:00:00 12 5 Sur 8 Sudeste 0 1002.2 0 96
2018-05-07 01:00:00 11.9 0 Calma 11 Sudeste 0 1002.4 0.4 96
2018-05-07 00:00:00 12.5 9 Sudeste 11 Sudeste 0 1002.4 0.7 95
2018-05-06 23:00:00 13.5 5 Este 15 Este 0 1002.2 1.1 94
2018-05-06 22:00:00 14.1 7 Este 13 Este 0 1002 1 93
2018-05-06 21:00:00 15.6 5 Este 13 Este 0 1001.7 0.6 83
2018-05-06 20:00:00 16.6 8 Nordeste 18 Nordeste 0 1001.1 -0.1 75
2018-05-06 19:00:00 18 9 Este 15 Este 0 1001 -0.6 67
2018-05-06 18:00:00 18.6 9 Este 15 Este 0 1001.1 -0.6 66
2018-05-06 17:00:00 18.9 10 Este 21 Nordeste 0 1001.2 -1 65
2018-05-06 16:00:00 18.7 12 Este 24 Este 0 1001.6 -0.9 64
2018-05-06 15:00:00 19.2 12 Este 24 Este 0 1001.7 -1.1 62
2018-05-06 14:00:00 18.6 10 Este 22 Nordeste 0 1002.2 -0.9 70
2018-05-06 13:00:00 18.1 11 Este 21 Este 0 1002.5 -0.8 70
2018-05-06 12:00:00 18.3 9 Este 17 Nordeste 0 1002.8 -0.9 72
2018-05-06 11:00:00 17.1 5 Nordeste 11 Este 0 1003.1 -0.1 72
2018-05-06 10:00:00 15 6 Sudeste 28 Sudoeste 0 1003.3 0.4 78
2018-05-06 09:00:00 11.1 11 Sudoeste 17 Sudoeste 0 1003.7 1 91
2018-05-06 08:00:00 8.6 5 Sur 11 Sudeste 0 1003.2 0 95
2018-05-06 07:00:00 9 6 Sudoeste 21 Sur 0 1002.9 -0.4 94
2018-05-06 06:00:00 8.6 10 Sur 15 Sur 0 1002.7 -1.1 94
2018-05-06 05:00:00 9.3 5 Sur 9 Sur 0 1003.2 -1.2 93
2018-05-06 04:00:00 10.3 9 Sur 18 Sudoeste 0 1003.3 -1.5 93
2018-05-06 03:00:00 9.2 9 Sur 17 Sur 0 1003.8 -1.4 94
2018-05-06 02:00:00 10 11 Sudeste 15 Sudeste 0 1004.4 -0.8 96
2018-05-06 01:00:00 10.3 11 Sudeste 17 Sudeste 0 1004.8 -0.2 94
2018-05-06 00:00:00 11.8 12 Sudeste 22 Este 0 1005.2 0.5 94
2018-05-05 23:00:00 12.3 15 Este 26 Este 0 1005.2 0.9 93
2018-05-05 22:00:00 12.5 15 Este 28 Este 0 1005 0.7 91
2018-05-05 21:00:00 13.5 0 Calma 24 Este 0 1004.7 0.5 87
2018-05-05 20:00:00 14.4 13 Este 26 Este 0 1004.3 -0.2 84
2018-05-05 19:00:00 15.1 14 Este 28 Este 0 1004.3 -0.6 79
2018-05-05 18:00:00 15.9 12 Este 26 Este 0 1004.2 -0.9 75
2018-05-05 17:00:00 16.6 10 Este 24 Este 0 1004.5 -0.9 70
2018-05-05 16:00:00 16.6 8 Este 24 Este 0 1004.9 -0.9 68
2018-05-05 15:00:00 17.3 8 Este 24 Este 0 1005.1 -1.1 65
2018-05-05 14:00:00 16.6 10 Este 28 Este 0 1005.4 -0.9 68
2018-05-05 13:00:00 16.4 13 Este 26 Nordeste 0 1005.8 -0.5 68
2018-05-05 12:00:00 14.4 9 Este 28 Sudeste 0 1006.2 -0.2 75
2018-05-05 11:00:00 14.5 17 Este 26 Este 0 1006.3 0.3 69
2018-05-05 10:00:00 13.3 13 Sudeste 17 Sudeste 0 1006.3 0.7 78
2018-05-05 09:00:00 10.2 9 Sur 17 Sur 0 1006.4 0.7 91
2018-05-05 08:00:00 7.9 12 Sur 22 Sur 0 1006 0.3 95
2018-05-05 07:00:00 7 12 Sur 17 Sur 0 1005.6 -0.3 96
2018-05-05 06:00:00 -- -- -- -- -- 0 1005.7 -0.5 --
2018-05-05 05:00:00 6.5 9 Sudeste -- -- 0 1005.7 -0.9 94
2018-05-05 04:00:00 7.3 7 Sudeste 13 Sudeste 0 1005.9 -1.2 93
2018-05-05 03:00:00 7.2 10 Sudeste 13 Sudeste 0 1006.2 -1 95
2018-05-05 02:00:00 7.4 10 Sudeste 17 Sudeste 0 1006.6 -0.7 94
2018-05-05 01:00:00 8.7 10 Sudeste 13 Sudeste 0 1007.1 0.2 93
2018-05-05 00:00:00 9.4 11 Sudeste 17 Este 0 1007.2 0.6 91
2018-05-04 23:00:00 11.2 10 Este 21 Este 0 1007.3 0.9 87
2018-05-04 22:00:00 11.6 10 Este 21 Este 0 1006.9 0.5 85
2018-05-04 21:00:00 12.6 14 Este 22 Este 0 1006.6 0.1 76
2018-05-04 20:00:00 13.9 12 Este 30 Este 0 1006.4 -0.2 71
2018-05-04 19:00:00 14.5 12 Este 32 Este 0 1006.4 -0.5 71
2018-05-04 18:00:00 15 11 Este 28 Este 0 1006.5 -0.7 68
2018-05-04 17:00:00 15.3 9 Este 32 Nordeste 0 1006.6 -0.7 63
2018-05-04 16:00:00 14.9 12 Nordeste 32 Este 0 1006.9 -0.8 64
2018-05-04 15:00:00 15.8 12 Este 30 Este 0 1007.2 -0.5 62
2018-05-04 14:00:00 15.7 13 Este 26 Este 0 1007.3 -0.5 63
2018-05-04 13:00:00 15.4 8 Nordeste 24 Este 0 1007.7 -0.1 65
2018-05-04 12:00:00 14.7 12 Este 21 Este 0 1007.7 0.1 66
2018-05-04 11:00:00 12.4 7 Nordeste 18 Sudeste 0 1007.8 0.5 75
2018-05-04 10:00:00 12.8 12 Sudeste 18 Este 0 1007.8 0.6 74
2018-05-04 09:00:00 9 9 Sudoeste 15 Sur 0 1007.6 0.5 87
2018-05-04 08:00:00 7.8 11 Sudoeste 26 Sudoeste 0 1007.3 0 90
2018-05-04 07:00:00 7.7 14 Sur 18 Sur 0 1007.2 -0.6 91
2018-05-04 06:00:00 8 13 Sur 17 Sudoeste 0 1007.1 -1.1 91
2018-05-04 05:00:00 7.1 9 Sur 13 Sur 0 1007.3 -1.1 91
2018-05-04 04:00:00 7.1 7 Sur 13 Sudoeste 0 1007.8 -1.1 90
2018-05-04 03:00:00 7.6 3 Sur 11 Sur 0 1008.2 -0.9 89
2018-05-04 02:00:00 7.8 6 Sur 11 Sur 0 1008.4 -1 87
2018-05-04 01:00:00 9.1 2 Sur 5 Sur 0 1008.9 0.1 86
2018-05-04 00:00:00 8.8 5 Sudeste 9 Este 0 1009.1 0.8 83
2018-05-03 23:00:00 9.4 6 Este 11 Este 0 1009.4 1.7 79
2018-05-03 22:00:00 9.9 4 Este 11 Este 0 1008.8 1.1 76
2018-05-03 21:00:00 11.6 0 Calma 13 Nordeste 0 1008.3 0.3 70
2018-05-03 20:00:00 13.6 5 Nordeste 18 Norte 0 1007.7 -0.2 66
2018-05-03 19:00:00 14.2 9 Norte 21 Norte 0 1007.7 -0.1 63
2018-05-03 18:00:00 14.4 9 Nordeste 21 Nordeste 0 1008 0.2 64
2018-05-03 17:00:00 14.9 10 Norte 21 Norte 0 1007.9 -0.4 63
2018-05-03 16:00:00 14.6 12 Norte 24 Norte 0 1007.8 -0.4 66
2018-05-03 15:00:00 14.6 9 Norte 21 Norte 0 1007.8 -0.3 65
2018-05-03 14:00:00 14.8 9 Norte 21 Norte 0 1008.3 0.3 66
2018-05-03 13:00:00 13.8 9 Norte 17 Nordeste 0 1008.2 0.4 69
2018-05-03 12:00:00 13.1 8 Norte 17 Norte 0 1008.1 0.7 73
2018-05-03 11:00:00 11.6 4 Noroeste 9 Sudoeste -- 1008 1.1 83
2018-05-03 10:00:00 10.2 6 Sudoeste 15 Oeste -- 1007.8 1.6 91
2018-05-03 09:00:00 10.1 5 Sudoeste 11 Sudoeste -- 1007.4 1.2 91
2018-05-03 08:00:00 9 6 Sudoeste 22 Sudoeste -- 1006.9 0.7 92
2018-05-03 07:00:00 8.5 0 Calma 9 Norte -- 1006.2 0.3 86
2018-05-03 06:00:00 9.5 4 Nordeste 9 Norte -- 1006.2 0.2 80
2018-05-03 05:00:00 10.2 4 Sur 11 Nordeste -- 1006.2 0.1 81
2018-05-03 04:00:00 10.1 6 Oeste 18 Oeste -- 1005.9 0.2 90
2018-05-03 03:00:00 9.8 10 Noroeste 21 Oeste -- 1006 0.7 98
2018-05-03 02:00:00 10 6 Oeste 13 Oeste -- 1006.1 1.5 98
2018-05-03 01:00:00 10.1 5 Noroeste 13 Noroeste -- 1005.7 2.1 97
2018-05-03 00:00:00 10.7 5 Sudoeste 13 Norte -- 1005.3 2.7 97
2018-05-02 23:00:00 11.3 6 Sudoeste 15 Nordeste -- 1004.6 2.9 97
2018-05-02 22:00:00 11.4 4 Sudeste 17 Este -- 1003.6 2.6 98
2018-05-02 21:00:00 11.8 6 Sur 37 Noroeste -- 1002.6 2.3 97
2018-05-02 20:00:00 12.9 13 Noroeste 21 Noroeste -- 1001.7 1.5 94
2018-05-02 19:00:00 13.8 12 Oeste 28 Oeste -- 1001 1 88
2018-05-02 18:00:00 15.3 12 Oeste 28 Oeste -- 1000.3 0.5 77
2018-05-02 17:00:00 15.1 21 Oeste 39 Oeste -- 1000.2 0.5 75
2018-05-02 16:00:00 15.5 11 Oeste 22 Sudoeste -- 1000 0.6 75
2018-05-02 15:00:00 14.9 15 Sudoeste 26 Sudoeste 0 999.8 0.8 80
2018-05-02 14:00:00 13.5 13 Sudoeste 24 Sudoeste 0 999.7 1.3 87
2018-05-02 13:00:00 12.9 14 Sudoeste 24 Sudoeste 0 999.4 1.5 82
2018-05-02 12:00:00 13.4 14 Sudoeste 22 Sudoeste 0 999 1.7 76
2018-05-02 11:00:00 12.7 10 Sudoeste 21 Sudoeste 0 998.4 1.5 74
2018-05-02 10:00:00 12 12 Sudoeste 35 Sudoeste 0 997.9 1.1 72
2018-05-02 09:00:00 11.5 19 Sudoeste 33 Sudoeste 0 997.3 0.3 66
2018-05-02 08:00:00 10.4 20 Sudoeste 33 Sudoeste 0 996.9 -0.6 70
2018-05-02 07:00:00 10.2 19 Sudoeste 30 Sudoeste 0 996.8 -0.9 64
2018-05-02 06:00:00 9.6 15 Sudoeste 26 Sudoeste 0 997 -1 69
2018-05-02 05:00:00 9.4 8 Sudoeste 15 Sur 0 997.5 -0.8 78
2018-05-02 04:00:00 9.6 8 Sudoeste 15 Sudoeste 0 997.7 -1 75
2018-05-02 03:00:00 10 8 Sudoeste 15 Sur 0 998 -1.3 70
2018-05-02 02:00:00 9.8 6 Sur 15 Sur 0 998.3 -1.3 71
2018-05-02 01:00:00 9.7 9 Sudoeste 18 Sudoeste 0 998.7 -0.7 73
2018-05-02 00:00:00 9.7 5 Sur 8 Sur 0 999.3 -0.1 80
2018-05-01 23:00:00 10.2 0 Calma 8 Este 0 999.6 0.2 75
2018-05-01 22:00:00 10.3 0 Calma 5 Nordeste 0 999.4 0.1 72
2018-05-01 21:00:00 11.5 0 Calma 11 Nordeste 0 999.4 -0.6 66
2018-05-01 20:00:00 12.6 5 Nordeste 15 Este 0 999.4 -0.9 61
2018-05-01 19:00:00 14.2 7 Este 24 Sudeste 0 999.3 -1.5 57
2018-05-01 18:00:00 13.8 12 Este 21 Este 0 1000 -1.2 58
2018-05-01 17:00:00 13.9 8 Nordeste 21 Norte 0 1000.3 -1.5 61
2018-05-01 16:00:00 13.9 10 Norte 22 Norte 0 1000.8 -1.5 61
2018-05-01 15:00:00 14 8 Norte 22 Noroeste 0 1001.2 -1.5 61
2018-05-01 14:00:00 13.6 12 Norte 21 Norte 0 1001.8 -1.2 64
2018-05-01 13:00:00 12.9 10 Norte 18 Noroeste 0 1002.3 -0.7 68
2018-05-01 12:00:00 13.4 11 Noroeste 24 Sudoeste 0 1002.7 -0.4 62
2018-05-01 11:00:00 11.2 10 Sudoeste 18 Sudoeste 0 1003 0.1 69
2018-05-01 10:00:00 8.5 14 Sudoeste 24 Sudoeste 0 1003 0.5 79
2018-05-01 09:00:00 5.7 14 Sudoeste 24 Sudoeste 0 1003.1 0.6 88
2018-05-01 08:00:00 4.9 15 Sudoeste 24 Sudoeste 0 1002.9 0.1 89
2018-05-01 07:00:00 5.1 14 Sudoeste 22 Sudoeste 0 1002.5 -0.5 89
2018-05-01 06:00:00 5.4 14 Sudoeste 22 Sudoeste 0 1002.5 -0.9 89
2018-05-01 05:00:00 5.8 12 Sudoeste 22 Sudoeste 0 1002.8 -0.8 88
2018-05-01 04:00:00 6.2 14 Sudoeste 24 Sur 0 1003 -0.7 89
2018-05-01 03:00:00 6.5 14 Sudoeste 24 Sur 0 1003.4 -0.2 90
2018-05-01 02:00:00 6.6 11 Sudoeste 17 Sudoeste 0 1003.6 0.1 91
2018-05-01 01:00:00 6.8 11 Sudoeste 17 Sudoeste 0 1003.7 0.6 90
2018-05-01 00:00:00 7.1 6 Sudoeste 15 Sudoeste 0 1003.6 0.9 88
2018-04-30 23:00:00 9.1 6 Oeste 21 Oeste 0 1003.5 1.3 74
2018-04-30 22:00:00 9.5 6 Noroeste 22 Noroeste 0 1003.1 1.1 66
2018-04-30 21:00:00 10.2 3 Noroeste 26 Norte 0 1002.7 1 75
2018-04-30 20:00:00 11.7 12 Noroeste 22 Oeste 0 1002.2 0.6 67
2018-04-30 19:00:00 11.5 11 Noroeste 24 Noroeste 0 1002 0.5 68
2018-04-30 18:00:00 12.7 10 Noroeste 21 Norte 0 1001.7 0.7 65
2018-04-30 17:00:00 13.6 9 Noroeste 24 Noroeste 0 1001.6 0.7 64
2018-04-30 16:00:00 13.3 9 Noroeste 21 Norte 0 1001.5 1.1 66
2018-04-30 15:00:00 12.3 8 Noroeste 24 Oeste 1.1 1001 0.9 77
2018-04-30 14:00:00 9.5 8 Sur 17 Sudoeste 1 1000.9 1.1 91
2018-04-30 13:00:00 8.9 12 Sur 26 Oeste 0.9 1000.4 1.3 88
2018-04-30 12:00:00 10 15 Oeste 30 Sudoeste 0.5 1000.1 1.7 85
2018-04-30 11:00:00 8.2 17 Oeste 28 Oeste 0.4 999.8 1.8 88
2018-04-30 10:00:00 7.7 11 Sudoeste 22 Oeste 1.2 999.1 1.5 86
2018-04-30 09:00:00 7.9 12 Sudoeste 26 Sudoeste 0 998.4 1.1 79
2018-04-30 08:00:00 7.4 15 Sudoeste 26 Sudoeste 0 998 0.7 79
2018-04-30 07:00:00 7.7 14 Sudoeste 26 Sudoeste 0 997.6 0.4 77
2018-04-30 06:00:00 7.9 17 Sudoeste 28 Oeste 0 997.3 -0.1 75
2018-04-30 05:00:00 7.7 17 Oeste 24 Sudoeste 0 997.3 -0.3 77
2018-04-30 04:00:00 7.4 11 Oeste 18 Oeste 0 997.2 -0.1 84
2018-04-30 03:00:00 7.5 13 Oeste 22 Oeste 0.3 997.4 0.4 86
2018-04-30 02:00:00 7.7 7 Sudoeste 11 Sudoeste 0.4 997.6 0.9 90
2018-04-30 01:00:00 8 6 Sur 13 Sudoeste 0 997.3 1.1 93
2018-04-30 00:00:00 8 8 Sudoeste 13 Oeste 0 997 1.6 93
2018-04-29 23:00:00 8.2 7 Sudoeste 17 Oeste 0.4 996.7 2.1 91
2018-04-29 22:00:00 8.3 11 Oeste 24 Oeste 0.4 996.2 1.6 87
2018-04-29 21:00:00 8.8 20 Oeste 32 Oeste 0 995.4 1.9 85
2018-04-29 20:00:00 8.3 14 Oeste 26 Oeste 2 994.6 0.8 89
2018-04-29 19:00:00 8.3 14 Sudoeste 32 Sur 0.6 994.6 1.6 91
2018-04-29 18:00:00 8.8 7 Sur 15 Oeste 1.2 993.5 1.1 91
2018-04-29 17:00:00 9 15 Sudoeste 30 Sudoeste 2.5 993.8 1.3 85
2018-04-29 16:00:00 11.7 6 Noroeste 21 Noroeste 0 993 0.2 73
2018-04-29 15:00:00 12.6 7 Norte 13 Norte 0 992.4 -0.4 74
2018-04-29 14:00:00 12.9 9 Noroeste 17 Noroeste 0 992.5 0.1 73
2018-04-29 13:00:00 11.8 6 Norte 13 Noroeste 0 992.8 0.7 74
2018-04-29 12:00:00 12 7 Noroeste 13 Norte 0 992.8 0.8 73
2018-04-29 11:00:00 10.7 9 Sudoeste 21 Sudoeste 0 992.4 0.9 83
2018-04-29 10:00:00 8.5 12 Sudoeste 26 Sudoeste 0 992.1 1 87
2018-04-29 09:00:00 7.3 11 Sudoeste 24 Sudoeste 0 992 0.9 96
2018-04-29 08:00:00 5.1 15 Sudoeste 24 Sudoeste 0 991.5 0 98
2018-04-29 07:00:00 4.8 12 Sudoeste 21 Sur 0 991.1 -0.8 97
2018-04-29 06:00:00 5 14 Sudoeste 18 Sudoeste 0 991.1 -1.4 98
2018-04-29 05:00:00 5.4 14 Sudoeste 22 Sudoeste 0 991.5 -1.6 98
2018-04-29 04:00:00 5.8 13 Sudoeste 18 Sudoeste 0 991.9 -1.6 98
2018-04-29 03:00:00 6.2 11 Sudoeste 18 Sur 0 992.5 -1.5 97
2018-04-29 02:00:00 6.7 12 Sudoeste 18 Sudoeste 0 993.1 -1.3 97
2018-04-29 01:00:00 6.8 9 Sudoeste 13 Sudoeste 0 993.5 -0.8 97
2018-04-29 00:00:00 7.5 10 Sudeste 11 Sudeste 0 994 -0.3 95
2018-04-28 23:00:00 8.4 9 Sudeste 15 Este 0 994.4 -0.2 95
2018-04-28 22:00:00 8.8 12 Sudeste 17 Este 0 994.3 -- 94
2018-04-28 21:00:00 9.4 11 Este 15 Sudeste 0 994.3 -0.6 94
2018-04-28 20:00:00 9.7 10 Sudeste -- -- -- 994.6 -0.4 93
2018-04-28 19:00:00 -- -- -- -- -- -- -- -- --
2018-04-28 18:00:00 10.8 9 Este 22 Este 0 994.9 -0.9 83
2018-04-28 17:00:00 11 0 Calma 17 Este 0 995 -1.2 74
2018-04-28 16:00:00 10.9 7 Nordeste 18 Nordeste 0 995.6 -1.1 85
2018-04-28 15:00:00 11.7 9 Norte 17 Norte 0 995.8 -1.2 81
2018-04-28 14:00:00 10.9 8 Nordeste 18 Este 0 996.2 -0.9 80
2018-04-28 13:00:00 10.9 4 Norte 13 Este 0 996.7 -0.6 82
2018-04-28 12:00:00 11 5 Este 13 Este 0 997 -0.6 80
2018-04-28 11:00:00 11.5 8 Este 13 Este 0 997.1 -0.6 75
2018-04-28 10:00:00 10.3 8 Sudoeste 26 Sudoeste 0 997.3 -0.5 87
2018-04-28 09:00:00 8.8 9 Sudoeste 11 Sudoeste 0 997.6 -0.4 92
2018-04-28 08:00:00 8.5 8 Sur 24 Sudoeste 0 997.7 -0.9 91
2018-04-28 07:00:00 8.7 7 Sur 11 Sur 0 997.8 -1 90
2018-04-28 06:00:00 8.8 5 Sudoeste 11 Sudoeste 0 998 -1.6 90
2018-04-28 05:00:00 8.8 6 Sur 18 Sur 0 998.6 -1.8 92
2018-04-28 04:00:00 8.6 11 Sudoeste 18 Sudoeste 0 998.8 -2 93
2018-04-28 03:00:00 8.9 10 Sudoeste 17 Sudoeste 0 999.6 -1.8 93
2018-04-28 02:00:00 9.2 6 Sur 13 Sur 0 1000.4 -1.3 91
2018-04-28 01:00:00 9.7 9 Sur 17 Sur 0 1000.8 -0.8 87
2018-04-28 00:00:00 11 5 Noroeste 13 Oeste 0 1001.4 0.1 73
2018-04-27 23:00:00 11 8 Noroeste 21 Noroeste 0 1001.7 0.4 74
2018-04-27 22:00:00 11.1 13 Noroeste 24 Noroeste 0 1001.6 0.3 74
2018-04-27 21:00:00 11.5 19 Oeste 26 Oeste 0 1001.3 0.2 71
2018-04-27 20:00:00 13 15 Noroeste 30 Noroeste 0 1001.3 0.4 64
2018-04-27 19:00:00 14 18 Noroeste 35 Noroeste 0 1001.3 0.2 61
2018-04-27 18:00:00 14.5 22 Noroeste 37 Oeste 0 1001.1 0 62
2018-04-27 17:00:00 14.5 23 Noroeste 41 Noroeste 0 1000.9 -0.4 62
2018-04-27 16:00:00 14.4 23 Noroeste 42 Noroeste 0 1001.1 -0.4 65
2018-04-27 15:00:00 14.3 22 Noroeste 42 Oeste 0 1001.1 -0.2 63
2018-04-27 14:00:00 14.4 24 Noroeste 46 Noroeste -- 1001.3 0.4 64
2018-04-27 13:00:00 14.2 24 Noroeste 52 Oeste -- 1001.5 1.2 66
2018-04-27 12:00:00 14 35 Oeste 48 Oeste 0 1001.3 1.5 69
2018-04-27 11:00:00 12.7 27 Oeste 50 Noroeste 0 1000.9 1.5 73
2018-04-27 10:00:00 12.3 37 Oeste 52 Oeste 0 1000.3 2 73
2018-04-27 09:00:00 11.8 33 Oeste 52 Noroeste 0 999.8 1.5 84
2018-04-27 08:00:00 12.4 31 Oeste 63 Oeste 0 999.4 1.2 80
2018-04-27 07:00:00 13.3 22 Oeste 37 Oeste 0 998.3 -0.2 65
2018-04-27 06:00:00 11 15 Oeste 26 Oeste 0 998.3 -0.7 78
2018-04-27 05:00:00 10.1 17 Oeste 24 Oeste 0 998.2 -0.9 88
2018-04-27 04:00:00 10.8 13 Oeste 24 Oeste 0 998.5 -1.1 89
2018-04-27 03:00:00 10.6 14 Oeste 24 Oeste 0 999 -1.1 91
2018-04-27 02:00:00 10.1 6 Sudoeste 13 Sudoeste 0 999.1 -1.8 91
2018-04-27 01:00:00 10.2 10 Sudoeste 15 Sudoeste 0 999.6 -1.3 91
2018-04-27 00:00:00 10.2 5 Sur 13 Sur 0 1000.1 -1.2 89
2018-04-26 23:00:00 11.4 9 Sudeste 15 Sudeste 0 1000.9 -1.1 86
2018-04-26 22:00:00 11.5 12 Este 22 Este 0 1000.9 -1.8 83
2018-04-26 21:00:00 12.5 17 Este 28 Sudeste 0 1001.3 -1.8 77
2018-04-26 20:00:00 13.8 18 Este 30 Este 0 1002 -1.7 72
2018-04-26 19:00:00 13.9 18 Este 30 Este 0 1002.7 -2.2 73
2018-04-26 18:00:00 14.3 12 Este 30 Nordeste 0 1003.1 -3 73
2018-04-26 17:00:00 14.8 16 Este 32 Nordeste 0 1003.7 -3.3 70
2018-04-26 16:00:00 14.6 13 Este 24 Este 0 1004.9 -2.8 73
2018-04-26 15:00:00 13.3 15 Este 24 Este 0 1006.1 -2.1 76
2018-04-26 14:00:00 13.9 16 Sudeste 26 Sudeste 0 1007 -1.3 74
2018-04-26 13:00:00 13.4 9 Este 21 Este 0 1007.7 -1 78
2018-04-26 12:00:00 12.9 10 Este 21 Este 0 1008.2 -0.6 82
2018-04-26 11:00:00 12.3 9 Este 17 Este 0 1008.3 -0.5 87
2018-04-26 10:00:00 11.4 8 Este 15 Este 0 1008.7 -- 92
2018-04-26 09:00:00 11 8 Este 11 Este 0 1008.8 -0.3 90
2018-04-26 08:00:00 10 8 Este 11 Este 0 1008.8 -0.4 94
2018-04-26 07:00:00 10.2 -- -- 11 Este 0 -- -- 91
2018-04-26 06:00:00 10.5 7 Este 13 Sudeste 0 1009.1 -1.3 91
2018-04-26 05:00:00 -- 9 Sudeste 11 Sudeste 0 1009.2 -1.6 --
2018-04-26 04:00:00 10.8 9 Sudeste 11 Sudeste 0 1009.8 -1.3 87
2018-04-26 03:00:00 10.7 5 Este 11 Este 0 1010.4 -1.1 87
2018-04-26 02:00:00 11 3 Este 9 Este 0 1010.8 -0.6 85
2018-04-26 01:00:00 11.4 3 Este 9 Este 0 1011.1 0.1 85
2018-04-26 00:00:00 11.5 3 Nordeste 9 Nordeste 0 1011.5 1.2 83
2018-04-25 23:00:00 11.6 3 Este 9 Este 0 1011.4 1.2 86
2018-04-25 22:00:00 11.8 2 Noroeste 8 Noroeste 0 1011 0.7 87
2018-04-25 21:00:00 12.2 5 Noroeste 9 Oeste 0 1010.3 0.1 85
2018-04-25 20:00:00 13.1 5 Noroeste 13 Oeste 0 1010.2 0.1 82
2018-04-25 19:00:00 12.3 10 Oeste 15 Oeste 0 1010.3 0.2 84
2018-04-25 18:00:00 12.6 10 Oeste 18 Noroeste 0 1010.2 0.4 86
2018-04-25 17:00:00 12.4 8 Noroeste 21 Norte 0 1010.1 0.5 86
2018-04-25 16:00:00 13.2 9 Noroeste 18 Noroeste 0 1010.1 0.7 86
2018-04-25 15:00:00 13.1 5 Norte 21 Oeste 0 1009.8 0.7 92
2018-04-25 14:00:00 13.8 14 Noroeste 26 Noroeste 0 1009.6 0.9 89
2018-04-25 13:00:00 15.4 13 Noroeste 21 Noroeste 0 1009.4 1 80
2018-04-25 12:00:00 14.7 9 Noroeste 15 Noroeste 0 1009.1 1.5 85
2018-04-25 11:00:00 13.7 10 Noroeste 15 Noroeste 0 1008.7 1.7 89
2018-04-25 10:00:00 12.9 8 Noroeste 13 Noroeste 0 1008.4 1.6 96
2018-04-25 09:00:00 11.9 5 Oeste 13 Oeste 0 1007.6 1.4 99
2018-04-25 08:00:00 11.9 8 Oeste 15 Oeste 0 1007 1.1 99
2018-04-25 07:00:00 11.7 4 Oeste 9 Oeste 0 1006.8 1.3 99
2018-04-25 06:00:00 12.2 0 Calma 11 Norte 0 1006.2 0.6 99
2018-04-25 05:00:00 12.5 7 Noroeste 13 Oeste 0 1005.9 -0.1 99
2018-04-25 04:00:00 12.5 5 Noroeste 9 Noroeste 0 1005.5 -0.5 99
2018-04-25 03:00:00 12.6 4 Noroeste 9 Noroeste 0 1005.6 -0.5 99
2018-04-25 02:00:00 12.8 4 Norte -- -- -- 1006 0.2 99
2018-04-25 01:00:00 12.8 0 Calma 8 Nordeste 0 1006 0.9 99
2018-04-25 00:00:00 12.8 2 Norte 8 Norte 0 1006.1 1.5 99
2018-04-24 23:00:00 12.9 2 Nordeste 8 Este 0 1005.8 1.3 98
2018-04-24 22:00:00 12.9 3 Nordeste 11 Este 0 1005.1 0.5 98
2018-04-24 21:00:00 13.1 5 Este 11 Este 0 1004.6 0.1 97
2018-04-24 20:00:00 13.5 5 Este 13 Este 0 1004.5 0.4 96
2018-04-24 19:00:00 13.6 10 Este 17 Este 0 1004.6 0.7 95
2018-04-24 18:00:00 14.1 5 Este 17 Norte 0 1004.5 0.8 94
2018-04-24 17:00:00 15.1 8 Este 22 Este 0 1004.1 0.2 92
2018-04-24 16:00:00 15.5 11 Este 22 Este 0 1003.9 -0.7 91
2018-04-24 15:00:00 15.6 12 Este 21 Este 0 1003.7 -1.3 91
2018-04-24 14:00:00 15.4 10 Este 17 Este 0 1003.9 -1.1 91
2018-04-24 13:00:00 15 4 Este 11 Este 0 1004.6 -0.1 94
2018-04-24 12:00:00 14.6 5 Este 11 Sudeste 0 1005 0.4 95
2018-04-24 11:00:00 14 0 Calma 8 Este 0 1005 0.8 98
2018-04-24 10:00:00 13.5 3 Nordeste 8 Este 0 1004.7 0.5 98
2018-04-24 09:00:00 13.3 0 Calma 9 Este 0 1004.6 0.2 99
2018-04-24 08:00:00 13.1 8 Sudeste 18 Este 0 1004.2 -0.3 99
2018-04-24 07:00:00 12.9 11 Este 21 Este 0 1004.2 -0.4 98
2018-04-24 06:00:00 13 12 Este 22 Este 0 1004.4 -0.6 98
2018-04-24 05:00:00 13.1 7 Este 18 Este 0 1004.5 -0.9 97
2018-04-24 04:00:00 13.1 8 Este 17 Este 0 1004.6 -1.1 97
2018-04-24 03:00:00 13.2 7 Este 17 Este 0 1005 -1 96
2018-04-24 02:00:00 13.2 8 Este 13 Este 0 1005.4 -1.1 96
2018-04-24 01:00:00 13.1 6 Este 15 Este 0 1005.7 -0.3 95
2018-04-24 00:00:00 13.2 10 Este 17 Este 0 1006 0.2 95
2018-04-23 23:00:00 13.2 6 Este 13 Este 0 1006.5 1 93
2018-04-23 22:00:00 13.1 9 Este 24 Este 0 1006 0.2 91
2018-04-23 21:00:00 13.2 12 Este 18 Este 0 1005.8 0.1 89
2018-04-23 20:00:00 13.6 8 Este 17 Nordeste 0 1005.5 -0.4 87
2018-04-23 19:00:00 14.3 12 Este 22 Este 0 1005.8 -0.3 85
2018-04-23 18:00:00 14.1 9 Este 22 Nordeste 0 1005.7 -0.6 86
2018-04-23 17:00:00 14.2 11 Este 18 Este 0 1005.9 -0.6 84
2018-04-23 16:00:00 14 9 Este 17 Este 0 1006.1 -0.4 86
2018-04-23 15:00:00 13.9 11 Este 21 Este 0 1006.3 0.1 87
2018-04-23 14:00:00 14 7 Este 17 Nordeste 0 1006.5 -0.1 88
2018-04-23 13:00:00 14.1 7 Este 21 Este 0 1006.5 -0.1 88
2018-04-23 12:00:00 13.4 14 Sudeste 18 Sudeste 0 1006.2 -0.1 94
2018-04-23 11:00:00 12.9 10 Sudeste 15 Sudeste 0 1006.6 0.9 95
2018-04-23 10:00:00 12.3 6 Sudeste 9 Sudeste 0 1006.6 1.4 97
2018-04-23 09:00:00 12 6 Sudeste 11 Sudeste 0 1006.3 1.4 98
2018-04-23 08:00:00 11.7 2 Sudeste 9 Nordeste 0 1005.7 0.7 98
2018-04-23 07:00:00 11.6 2 Sudeste 5 Sudeste 0 1005.2 0.4 98
2018-04-23 06:00:00 11.6 3 Norte 5 Norte 0 1004.9 0.2 98
2018-04-23 05:00:00 11.7 0 Calma 8 Norte 0 1005 0.3 97
2018-04-23 04:00:00 11.7 4 Noroeste 8 Noroeste 0 1004.8 0 97
2018-04-23 03:00:00 11.9 3 Oeste 8 Oeste 0 1004.7 -0.6 98
2018-04-23 02:00:00 12 0 Calma 8 Noroeste 0 1004.7 0 98
2018-04-23 01:00:00 11.8 3 Norte 8 Oeste 0 1004.8 0.7 97
2018-04-23 00:00:00 12 3 Oeste 13 Nordeste 0 1005.3 2 97
2018-04-22 23:00:00 12.2 3 Nordeste 13 Oeste 0.2 1004.7 1.9 97
2018-04-22 22:00:00 12.2 10 Noroeste 17 Oeste 0 1004.1 1.9 97
2018-04-22 21:00:00 12.5 7 Noroeste 13 Oeste 0 1003.3 1.5 96
2018-04-22 20:00:00 12.8 10 Noroeste 18 Noroeste 0 1002.8 1 95
2018-04-22 19:00:00 13.1 8 Noroeste 18 Noroeste 0 1002.2 0.7 93
2018-04-22 18:00:00 13.6 8 Noroeste 18 Oeste 0 1001.8 0.2 93
2018-04-22 17:00:00 13.8 10 Noroeste 17 Noroeste 0 1001.8 0.3 93
2018-04-22 16:00:00 13.8 3 Norte 13 Norte 0 1001.5 0 93
2018-04-22 15:00:00 14.4 7 Norte 17 Noroeste 0 1001.6 0.3 91
2018-04-22 14:00:00 14.1 7 Noroeste 18 Noroeste 0 1001.5 0.1 93
2018-04-22 13:00:00 14.8 12 Noroeste 17 Noroeste 0 1001.5 0.5 91
2018-04-22 12:00:00 18.2 3 Sudoeste 13 Sur 0 1001.3 0.1 70
2018-04-22 11:00:00 16.3 0 Calma 21 Sur 0 1001.4 0.8 75
2018-04-22 10:00:00 15.6 6 Sur 15 Sur 0 1001 0.7 83
2018-04-22 09:00:00 14.1 3 Sudoeste 13 Sudoeste 0 1001.2 0.7 87
2018-04-22 08:00:00 13.7 9 Sudoeste 18 Sur 0 1000.6 -0.4 84
2018-04-22 07:00:00 13.7 13 Sur 21 Sudoeste 0 1000.3 -0.8 86
2018-04-22 06:00:00 11.8 9 Sur 15 Sur 0 1000.5 -0.7 90
2018-04-22 05:00:00 12.8 5 Sudeste 11 Oeste 0 1001 -0.2 88
2018-04-22 04:00:00 14.7 8 Oeste 22 Oeste 0 1001.1 0.1 81
2018-04-22 03:00:00 15.8 15 Oeste 30 Oeste 0 1001.2 0.6 75
2018-04-22 02:00:00 15.4 20 Oeste 30 Noroeste 0 1001.2 1.3 77
2018-04-22 01:00:00 13.3 15 Oeste 24 Oeste 0 1001 1.5 98
2018-04-22 00:00:00 13.1 12 Noroeste 26 Noroeste 0 1000.6 1.4 97